Time;durP1;ratioP1;P1;durP2;ratioP2;P2;SDS_P1;SDS_P2;PMS_P1;PMS_P2;Temp;Humidity;BMP_temperature;BMP_pressure;BME280_temperature;BME280_humidity;BME280_pressure;Samples;Min_cycle;Max_cycle;Signal;HPM_P1;HPM_P2
2024/01/06 00:03:47;;;;;;;1.95;1.20;;;;;;;6.72;56.16;98623.03;10497601;28;20382;-63
2024/01/06 00:08:53;;;;;;;1.20;0.75;;;;;;;6.69;55.96;98618.06;10514948;28;20040;-64
2024/01/06 00:13:56;;;;;;;2.53;0.90;;;;;;;6.78;56.00;98621.81;10515663;28;20551;-63
2024/01/06 00:18:59;;;;;;;1.85;0.85;;;;;;;6.77;55.71;98625.34;10497518;28;20109;-63
2024/01/06 00:24:01;;;;;;;1.88;1.08;;;;;;;6.80;55.93;98625.13;10514966;28;20044;-64
2024/01/06 00:29:03;;;;;;;2.20;0.80;;;;;;;6.68;56.01;98631.13;10514954;28;20124;-63
2024/01/06 00:34:05;;;;;;;2.13;1.20;;;;;;;6.75;56.01;98635.84;10514930;28;20047;-64
2024/01/06 00:39:08;;;;;;;3.15;1.50;;;;;;;6.71;56.28;98636.13;10514593;28;20560;-63
2024/01/06 00:44:10;;;;;;;0.75;0.70;;;;;;;6.73;56.16;98639.47;10516282;28;20125;-64
2024/01/06 00:49:12;;;;;;;0.90;0.80;;;;;;;6.67;56.28;98648.50;10522038;28;20051;-64
2024/01/06 00:54:14;;;;;;;2.88;0.85;;;;;;;6.72;56.31;98643.81;10521448;28;20605;-63
2024/01/06 00:59:16;;;;;;;1.75;0.85;;;;;;;6.80;56.20;98646.75;10521033;28;20072;-63
2024/01/06 01:04:18;;;;;;;1.33;0.65;;;;;;;6.83;56.05;98650.94;10521789;28;20043;-63
2024/01/06 01:09:20;;;;;;;0.95;0.75;;;;;;;6.84;56.22;98645.63;10521901;28;20040;-63
2024/01/06 01:14:22;;;;;;;1.58;0.98;;;;;;;6.94;56.11;98648.44;10521071;28;20054;-63
2024/01/06 01:19:24;;;;;;;2.00;0.88;;;;;;;7.01;56.29;98665.31;10521242;28;20075;-63
2024/01/06 01:24:26;;;;;;;0.90;0.77;;;;;;;7.07;56.11;98654.53;10521506;28;20044;-63
2024/01/06 01:29:28;;;;;;;1.02;0.65;;;;;;;7.03;56.04;98661.69;10520897;28;20047;-63
2024/01/06 01:34:30;;;;;;;1.23;0.80;;;;;;;7.03;56.35;98671.25;10520800;28;20093;-63
2024/01/06 01:39:33;;;;;;;1.13;0.93;;;;;;;7.16;56.04;98674.75;10519992;28;20121;-63
2024/01/06 01:44:35;;;;;;;0.60;0.60;;;;;;;7.15;56.08;98676.50;10520301;28;20070;-63
2024/01/06 01:49:38;;;;;;;2.35;1.10;;;;;;;7.09;56.16;98683.84;10501547;28;20412;-64
2024/01/06 01:54:42;;;;;;;2.05;0.57;;;;;;;7.12;56.18;98691.47;10519372;28;20044;-63
2024/01/06 01:59:45;;;;;;;1.25;1.02;;;;;;;7.09;56.11;98695.09;10519642;28;20451;-63
2024/01/06 02:04:46;;;;;;;0.60;0.60;;;;;;;7.10;56.12;98701.13;10519155;28;20070;-63
2024/01/06 02:09:49;;;;;;;0.70;0.70;;;;;;;7.01;56.11;98707.75;10519039;28;20491;-63
2024/01/06 02:14:51;;;;;;;1.02;0.95;;;;;;;7.00;56.27;98702.63;10518462;28;20067;-64
2024/01/06 02:19:53;;;;;;;1.20;0.88;;;;;;;7.06;56.34;98704.88;10500715;28;20085;-63
2024/01/06 02:24:55;;;;;;;1.65;0.90;;;;;;;7.09;56.27;98715.06;10517942;28;20071;-64
2024/01/06 02:29:57;;;;;;;1.02;0.68;;;;;;;7.09;56.10;98715.06;10517862;28;20059;-63
2024/01/06 02:34:59;;;;;;;1.48;0.93;;;;;;;7.01;56.22;98718.16;10518220;28;20051;-63
2024/01/06 02:40:01;;;;;;;1.85;0.95;;;;;;;7.03;56.16;98728.44;10517955;28;20499;-63
2024/01/06 02:45:04;;;;;;;1.48;0.73;;;;;;;6.99;56.33;98734.78;10518108;28;20056;-63
2024/01/06 02:50:06;;;;;;;1.23;0.70;;;;;;;6.99;56.43;98735.63;10516869;28;20052;-64
2024/01/06 02:55:08;;;;;;;0.85;0.85;;;;;;;6.93;56.60;98745.56;10516923;28;20130;-64
2024/01/06 03:00:12;;;;;;;0.93;0.82;;;;;;;6.92;56.69;98749.06;10499284;28;20041;-63
2024/01/06 03:05:14;;;;;;;1.33;0.90;;;;;;;6.93;56.86;98750.75;10517468;28;20067;-63
2024/01/06 03:10:16;;;;;;;2.35;1.23;;;;;;;6.85;57.04;98753.00;10516032;28;20039;-63
2024/01/06 03:15:18;;;;;;;4.30;1.05;;;;;;;6.82;57.13;98753.19;10516740;28;20772;-63
2024/01/06 03:20:20;;;;;;;2.85;1.40;;;;;;;6.81;57.27;98757.59;10516253;28;20048;-63
2024/01/06 03:25:22;;;;;;;1.40;0.95;;;;;;;6.79;57.23;98756.84;10499317;28;21047;-63
2024/01/06 03:30:24;;;;;;;2.83;1.58;;;;;;;6.86;57.42;98750.31;10516014;28;20051;-63
2024/01/06 03:35:26;;;;;;;3.47;1.40;;;;;;;6.70;57.52;98759.16;10498667;28;20055;-63
2024/01/06 03:40:28;;;;;;;0.80;0.73;;;;;;;6.75;57.56;98759.72;10515425;28;20044;-63
2024/01/06 03:45:30;;;;;;;1.92;0.90;;;;;;;6.64;57.74;98759.53;10516258;28;20028;-63
2024/01/06 03:50:32;;;;;;;3.65;1.10;;;;;;;6.53;58.02;98764.59;10498557;28;20067;-63
2024/01/06 03:55:34;;;;;;;1.70;1.00;;;;;;;6.51;58.16;98775.03;10514728;28;20464;-64
2024/01/06 04:00:36;;;;;;;4.07;1.05;;;;;;;6.53;58.36;98782.78;10514860;28;20048;-63
2024/01/06 04:05:38;;;;;;;2.53;0.90;;;;;;;6.57;58.34;98792.03;10514825;28;20094;-63
2024/01/06 04:10:41;;;;;;;3.10;1.25;;;;;;;6.61;58.52;98785.72;10497939;28;20503;-63
2024/01/06 04:15:44;;;;;;;1.63;0.98;;;;;;;6.69;58.30;98793.88;10497358;28;20076;-63
2024/01/06 04:20:46;;;;;;;3.05;1.10;;;;;;;6.69;58.88;98789.53;10521829;28;20787;-63
2024/01/06 04:25:48;;;;;;;2.17;1.23;;;;;;;6.58;59.24;98791.94;10522361;28;20135;-64
2024/01/06 04:30:51;;;;;;;1.50;1.10;;;;;;;6.61;59.47;98783.13;10505466;28;20126;-63
2024/01/06 04:35:53;;;;;;;2.15;1.10;;;;;;;6.57;59.64;98785.06;10522664;28;20048;-63
2024/01/06 04:40:55;;;;;;;1.45;0.82;;;;;;;6.46;59.88;98791.84;10462917;28;20060;-63
2024/01/06 04:45:57;;;;;;;1.83;1.10;;;;;;;6.44;60.01;98804.94;10481204;28;20058;-63
2024/01/06 04:51:00;;;;;;;3.47;1.30;;;;;;;6.40;60.43;98798.25;10479950;28;20048;-61
2024/01/06 04:56:02;;;;;;;1.13;0.80;;;;;;;6.44;60.42;98798.91;10478314;28;20309;-63
2024/01/06 05:01:04;;;;;;;3.13;1.05;;;;;;;6.49;60.32;98796.88;10479171;28;20048;-63
2024/01/06 05:06:06;;;;;;;2.80;1.00;;;;;;;6.47;60.40;98796.13;10479909;28;20047;-63
2024/01/06 05:11:08;;;;;;;0.77;0.70;;;;;;;6.45;60.71;98800.59;10478670;28;20135;-63
2024/01/06 05:16:10;;;;;;;2.60;1.25;;;;;;;6.37;60.81;98800.22;10474185;28;20205;-63
2024/01/06 05:21:12;;;;;;;3.85;1.25;;;;;;;6.31;60.95;98804.00;10475192;28;20040;-65
2024/01/06 05:26:14;;;;;;;1.42;1.13;;;;;;;6.37;60.98;98808.00;10472951;28;20052;-64
2024/01/06 05:31:16;;;;;;;1.27;1.10;;;;;;;6.44;61.00;98823.13;10476935;28;20106;-63
2024/01/06 05:36:20;;;;;;;3.30;1.20;;;;;;;6.55;60.96;98828.47;10478579;28;20072;-64
2024/01/06 05:41:22;;;;;;;1.17;0.90;;;;;;;6.54;60.90;98821.63;10495805;28;20056;-63
2024/01/06 05:46:24;;;;;;;1.83;1.23;;;;;;;6.54;60.77;98815.59;10519537;28;20059;-63
2024/01/06 05:51:26;;;;;;;0.82;0.82;;;;;;;6.49;61.06;98826.25;10518570;28;20121;-64
2024/01/06 05:56:29;;;;;;;4.22;1.10;;;;;;;6.58;60.99;98833.50;10518655;28;20750;-63
2024/01/06 06:01:31;;;;;;;0.85;0.82;;;;;;;6.63;60.98;98836.66;10518961;28;20094;-64
2024/01/06 06:06:33;;;;;;;3.30;0.80;;;;;;;6.71;60.85;98829.25;10518030;28;20101;-63
2024/01/06 06:11:35;;;;;;;0.60;0.60;;;;;;;6.63;60.88;98847.06;10517933;28;20061;-64
2024/01/06 06:16:37;;;;;;;1.55;1.20;;;;;;;6.71;60.70;98856.97;10518639;28;20165;-64
2024/01/06 06:21:39;;;;;;;1.00;0.85;;;;;;;6.61;60.91;98858.47;10518603;28;20066;-63
2024/01/06 06:26:41;;;;;;;2.65;1.10;;;;;;;6.58;60.89;98858.63;10516662;28;20043;-63
2024/01/06 06:31:44;;;;;;;1.70;1.40;;;;;;;6.43;61.24;98870.78;10516329;28;20040;-63
2024/01/06 06:36:46;;;;;;;1.45;1.05;;;;;;;6.34;61.47;98869.59;10516001;28;20047;-63
2024/01/06 06:41:48;;;;;;;1.55;0.95;;;;;;;6.36;61.43;98872.09;10516597;28;20055;-63
2024/01/06 06:46:50;;;;;;;1.70;0.77;;;;;;;6.34;61.77;98886.91;10516041;28;20135;-63
2024/01/06 06:51:52;;;;;;;1.17;0.70;;;;;;;6.51;61.47;98904.09;10500293;28;20040;-62
2024/01/06 06:56:54;;;;;;;1.35;0.80;;;;;;;6.59;61.18;98897.53;10532842;27;20139;-63
2024/01/06 07:01:57;;;;;;;1.50;0.90;;;;;;;6.48;61.41;98909.47;10516947;28;20055;-63
2024/01/06 07:06:59;;;;;;;1.02;0.82;;;;;;;6.35;61.60;98905.00;10516873;28;20055;-65
2024/01/06 07:12:01;;;;;;;1.38;0.85;;;;;;;6.44;61.58;98914.00;10515299;28;20047;-63
2024/01/06 07:17:04;;;;;;;0.93;0.60;;;;;;;6.50;61.58;98923.19;10494260;28;20044;-63
2024/01/06 07:22:06;;;;;;;5.45;2.05;;;;;;;6.56;61.42;98921.06;10516236;28;20048;-62
2024/01/06 07:27:08;;;;;;;2.70;1.63;;;;;;;6.61;61.34;98929.44;10529118;28;20059;-68
2024/01/06 07:32:10;;;;;;;1.63;0.93;;;;;;;6.75;61.16;98928.63;10514527;28;20052;-68
2024/01/06 07:37:12;;;;;;;3.83;1.10;;;;;;;6.74;61.28;98940.75;10515380;28;20047;-68
2024/01/06 07:42:14;;;;;;;3.10;1.13;;;;;;;6.80;61.02;98945.59;10481884;28;20083;-67
2024/01/06 07:47:16;;;;;;;3.83;2.00;;;;;;;6.73;61.19;98956.44;10515923;28;20069;-68
2024/01/06 07:52:18;;;;;;;2.22;1.13;;;;;;;6.71;61.22;98966.09;10494140;28;20040;-68
2024/01/06 07:57:20;;;;;;;1.17;0.82;;;;;;;6.60;61.49;98963.28;10523906;28;20635;-68
2024/01/06 08:02:22;;;;;;;2.15;1.50;;;;;;;6.61;61.44;98971.00;10524052;28;20377;-68
2024/01/06 08:07:24;;;;;;;4.00;1.40;;;;;;;6.71;61.36;98977.34;10505813;28;20158;-68
2024/01/06 08:12:26;;;;;;;2.65;1.10;;;;;;;6.76;61.53;98982.25;10539490;27;20040;-68
2024/01/06 08:17:28;;;;;;;2.05;1.48;;;;;;;6.75;61.25;98988.38;10518688;28;20036;-68
2024/01/06 08:22:30;;;;;;;2.20;1.30;;;;;;;6.83;61.29;99002.59;10522840;28;20056;-67
2024/01/06 08:27:33;;;;;;;1.58;1.20;;;;;;;6.82;61.04;99008.72;10522248;28;20044;-67
2024/01/06 08:32:35;;;;;;;1.33;1.02;;;;;;;6.86;61.22;99010.19;10519985;28;20154;-68
2024/01/06 08:37:37;;;;;;;2.25;1.55;;;;;;;7.01;61.03;99011.06;10519890;28;20058;-68
2024/01/06 08:42:39;;;;;;;1.77;1.20;;;;;;;7.04;60.85;99029.09;10520477;28;20492;-68
2024/01/06 08:47:41;;;;;;;1.88;1.15;;;;;;;6.94;61.15;99027.94;10521921;28;20032;-68
2024/01/06 08:52:43;;;;;;;1.35;1.00;;;;;;;7.02;61.12;99042.16;10516496;28;20151;-67
2024/01/06 08:57:46;;;;;;;1.30;1.08;;;;;;;7.13;61.06;99050.16;10518962;28;20310;-68
2024/01/06 09:02:49;;;;;;;1.10;0.93;;;;;;;7.23;60.86;99053.03;10520807;28;20059;-68
2024/01/06 09:07:51;;;;;;;1.58;1.17;;;;;;;7.22;61.10;99064.38;10500082;28;21370;-68
2024/01/06 09:12:56;;;;;;;1.52;1.10;;;;;;;7.38;60.77;99065.13;10521223;28;20496;-68
2024/01/06 09:17:58;;;;;;;1.45;1.05;;;;;;;7.52;60.72;99062.53;10519189;28;20048;-68
2024/01/06 09:23:01;;;;;;;2.22;1.40;;;;;;;7.55;60.74;99070.13;10521629;28;20044;-69
2024/01/06 09:28:03;;;;;;;2.70;1.40;;;;;;;7.53;60.61;99069.38;10516389;28;20051;-68
2024/01/06 09:33:07;;;;;;;2.50;1.63;;;;;;;7.48;60.75;99081.84;10519126;28;20040;-68
2024/01/06 09:38:10;;;;;;;2.13;1.20;;;;;;;7.52;60.63;99083.34;10519731;28;20130;-67
2024/01/06 09:43:12;;;;;;;2.10;1.17;;;;;;;7.42;61.06;99092.63;10519389;28;20060;-68
2024/01/06 09:48:14;;;;;;;2.03;1.30;;;;;;;7.36;61.41;99094.75;10516963;28;20036;-68
2024/01/06 09:53:17;;;;;;;2.10;1.08;;;;;;;7.19;61.72;99101.81;10501769;28;20093;-68
2024/01/06 09:58:19;;;;;;;2.17;1.40;;;;;;;7.03;62.24;99105.38;10500199;28;20042;-67
2024/01/06 10:03:21;;;;;;;2.63;1.30;;;;;;;7.11;62.09;99106.63;10517172;28;20051;-67
2024/01/06 10:08:26;;;;;;;1.42;1.10;;;;;;;7.08;62.48;99108.56;10518583;28;20072;-67
2024/01/06 10:13:28;;;;;;;1.98;1.27;;;;;;;7.22;62.38;99115.56;10518900;28;20050;-67
2024/01/06 10:18:31;;;;;;;2.92;1.77;;;;;;;7.17;62.28;99111.47;10517383;28;20131;-67
2024/01/06 10:23:34;;;;;;;2.45;1.33;;;;;;;7.00;63.04;99122.00;10517760;28;20044;-68
2024/01/06 10:28:36;;;;;;;2.88;1.50;;;;;;;6.99;63.32;99124.69;10483520;28;20084;-67
2024/01/06 10:33:39;;;;;;;3.53;1.75;;;;;;;7.26;62.92;99127.44;10517363;28;20093;-68
2024/01/06 10:38:42;;;;;;;1.95;1.30;;;;;;;7.38;62.64;99129.31;10517554;28;20052;-68
2024/01/06 10:43:44;;;;;;;2.03;1.20;;;;;;;7.41;62.49;99142.13;10514863;28;20397;-68
2024/01/06 10:48:47;;;;;;;2.90;1.42;;;;;;;7.24;62.73;99147.50;10500149;28;20036;-67
2024/01/06 10:53:50;;;;;;;6.95;3.65;;;;;;;7.11;62.38;99145.63;10515104;28;20048;-67
2024/01/06 10:58:53;;;;;;;7.03;3.90;;;;;;;7.13;62.13;99148.13;10515400;28;20159;-67
2024/01/06 11:03:56;;;;;;;5.05;2.95;;;;;;;7.06;62.17;99152.03;10512300;28;20048;-67
2024/01/06 11:09:11;;;;;;;7.15;3.80;;;;;;;7.27;61.73;99153.34;10513434;28;20052;-67
2024/01/06 11:14:26;;;;;;;8.38;3.85;;;;;;;7.16;61.73;99153.97;10495019;28;20654;-68
2024/01/06 11:19:33;;;;;;;8.77;3.45;;;;;;;7.18;62.17;99148.72;10503801;28;20051;-67
2024/01/06 11:24:37;;;;;;;7.40;3.78;;;;;;;7.22;62.05;99146.75;10508680;28;20185;-67
2024/01/06 11:29:43;;;;;;;6.82;3.53;;;;;;;7.27;62.05;99145.56;10508345;28;20056;-67
2024/01/06 11:34:49;;;;;;;8.32;3.90;;;;;;;7.23;62.06;99144.06;10511224;28;20040;-67
2024/01/06 11:39:52;;;;;;;6.60;3.05;;;;;;;7.46;61.55;99142.69;10513716;28;20194;-67
2024/01/06 11:45:01;;;;;;;6.40;3.08;;;;;;;7.60;61.10;99138.34;10495378;28;20595;-67
2024/01/06 11:50:05;;;;;;;6.47;2.95;;;;;;;7.74;61.01;99135.75;10511759;28;20044;-67
2024/01/06 11:55:09;;;;;;;5.28;2.78;;;;;;;7.71;60.90;99128.13;10512502;28;20578;-67
2024/01/06 12:00:14;;;;;;;6.13;3.00;;;;;;;7.67;60.40;99144.03;10493905;28;20048;-67
2024/01/06 12:05:18;;;;;;;5.20;2.60;;;;;;;7.59;59.84;99139.28;10512008;28;20085;-67
2024/01/06 12:10:21;;;;;;;6.78;2.85;;;;;;;7.48;60.36;99143.44;10512906;28;20192;-68
2024/01/06 12:15:24;;;;;;;5.60;2.75;;;;;;;7.58;60.01;99135.00;10513975;28;20492;-67
2024/01/06 12:20:28;;;;;;;5.57;3.00;;;;;;;7.68;59.97;99145.69;10511215;28;20522;-68
2024/01/06 12:25:33;;;;;;;7.32;3.85;;;;;;;7.63;59.83;99143.34;10513063;28;20044;-67
2024/01/06 12:30:40;;;;;;;5.88;2.55;;;;;;;7.75;59.90;99153.03;10509363;28;20444;-67
2024/01/06 12:35:42;;;;;;;6.20;2.90;;;;;;;7.58;60.01;99149.78;10509561;28;20074;-67
2024/01/06 12:40:46;;;;;;;5.25;2.45;;;;;;;7.54;60.13;99150.88;10518503;28;20206;-68
2024/01/06 12:45:48;;;;;;;4.50;2.58;;;;;;;7.64;59.94;99150.25;10514800;28;20043;-67
2024/01/06 12:50:50;;;;;;;3.92;2.20;;;;;;;7.72;59.23;99145.41;10487659;28;20452;-68
2024/01/06 12:55:52;;;;;;;3.95;2.15;;;;;;;7.40;59.33;99156.91;10520304;28;20043;-67
2024/01/06 13:00:54;;;;;;;4.32;1.88;;;;;;;7.30;58.73;99163.59;10525464;27;20067;-67
2024/01/06 13:05:56;;;;;;;3.38;1.90;;;;;;;7.33;58.93;99167.75;10516944;28;20283;-67
2024/01/06 13:10:59;;;;;;;6.82;2.10;;;;;;;7.28;58.92;99168.03;10518762;28;20165;-68
2024/01/06 13:16:05;;;;;;;5.30;2.42;;;;;;;7.22;58.94;99178.81;10502710;28;20044;-68
2024/01/06 13:21:07;;;;;;;3.83;2.15;;;;;;;7.13;58.84;99172.38;10519558;28;20046;-67
2024/01/06 13:26:10;;;;;;;2.80;1.58;;;;;;;7.00;58.63;99186.13;10518061;28;20067;-68
2024/01/06 13:31:12;;;;;;;2.95;1.70;;;;;;;6.97;58.83;99183.72;10516060;28;20050;-67
2024/01/06 13:36:17;;;;;;;3.65;1.30;;;;;;;6.85;58.42;99194.81;10518151;28;20050;-68
2024/01/06 13:41:19;;;;;;;2.92;1.70;;;;;;;6.65;58.92;99208.09;10518999;28;20044;-67
2024/01/06 13:46:21;;;;;;;3.35;1.65;;;;;;;6.71;58.55;99206.00;10519454;28;20511;-67
2024/01/06 13:51:24;;;;;;;3.72;1.77;;;;;;;6.69;58.81;99214.78;10499865;28;20071;-67
2024/01/06 13:56:27;;;;;;;3.17;1.58;;;;;;;6.77;58.73;99213.44;10524893;27;20036;-68
2024/01/06 14:01:30;;;;;;;3.05;1.60;;;;;;;6.88;58.36;99215.44;10516518;28;20495;-67
2024/01/06 14:06:33;;;;;;;2.38;1.40;;;;;;;6.80;58.48;99228.00;10500002;28;20047;-68
2024/01/06 14:11:36;;;;;;;3.15;1.63;;;;;;;6.91;58.31;99229.09;10499399;28;20575;-67
2024/01/06 14:16:38;;;;;;;2.78;1.60;;;;;;;6.81;58.29;99233.16;10516234;28;20054;-68
2024/01/06 14:21:40;;;;;;;3.30;1.83;;;;;;;6.91;57.98;99241.25;10513669;28;20130;-68
2024/01/06 14:26:42;;;;;;;2.65;1.33;;;;;;;6.88;58.17;99242.25;10516158;28;20044;-68
2024/01/06 14:31:44;;;;;;;3.60;1.90;;;;;;;6.84;58.06;99239.91;10516084;28;20078;-68
2024/01/06 14:36:49;;;;;;;3.20;1.88;;;;;;;6.67;58.02;99256.44;10514670;28;20052;-68
2024/01/06 14:41:51;;;;;;;3.10;2.00;;;;;;;6.59;58.19;99262.97;10515553;28;20051;-67
2024/01/06 14:46:53;;;;;;;4.50;2.22;;;;;;;6.53;58.29;99274.53;10512561;28;20119;-68
2024/01/06 14:51:55;;;;;;;4.80;2.17;;;;;;;6.53;58.43;99273.69;10494569;28;20054;-68
2024/01/06 14:57:01;;;;;;;4.78;2.10;;;;;;;6.47;58.54;99282.63;10514433;28;20078;-68
2024/01/06 15:02:03;;;;;;;3.20;1.83;;;;;;;6.57;58.47;99298.59;10514790;28;20048;-67
2024/01/06 15:07:05;;;;;;;4.15;2.20;;;;;;;6.46;58.46;99301.75;10515616;28;20724;-68
2024/01/06 15:12:07;;;;;;;3.80;1.92;;;;;;;6.32;58.76;99299.06;10509822;28;20048;-68
2024/01/06 15:17:10;;;;;;;7.40;2.42;;;;;;;6.21;58.79;99298.72;10514724;28;20043;-68
2024/01/06 15:22:12;;;;;;;4.68;2.40;;;;;;;5.98;59.28;99305.09;10495599;28;20054;-68
2024/01/06 15:27:14;;;;;;;3.67;2.03;;;;;;;6.07;59.44;99307.22;10514547;28;20048;-68
2024/01/06 15:32:16;;;;;;;5.95;2.83;;;;;;;6.19;59.20;99309.19;10494515;28;20085;-67
2024/01/06 15:37:18;;;;;;;3.17;2.10;;;;;;;6.13;59.29;99308.66;10513075;28;20052;-68
2024/01/06 15:42:20;;;;;;;2.45;1.45;;;;;;;6.08;59.21;99313.28;10515050;28;20054;-68
2024/01/06 15:47:22;;;;;;;3.47;1.85;;;;;;;6.13;59.34;99322.50;10510607;28;20036;-68
2024/01/06 15:52:24;;;;;;;3.35;1.65;;;;;;;6.08;59.52;99319.28;10512378;28;20054;-67
2024/01/06 15:57:31;;;;;;;3.50;1.70;;;;;;;6.00;59.78;99324.03;10513080;28;20070;-68
2024/01/06 16:02:34;;;;;;;3.63;1.90;;;;;;;5.91;60.11;99334.03;10510792;28;21227;-67
2024/01/06 16:07:36;;;;;;;3.42;1.80;;;;;;;5.82;60.33;99334.53;10511433;28;20631;-67
2024/01/06 16:12:43;;;;;;;3.90;1.88;;;;;;;5.89;60.37;99339.31;10512133;28;20515;-68
2024/01/06 16:17:46;;;;;;;3.67;2.30;;;;;;;6.05;60.27;99341.97;10518522;28;20052;-68
2024/01/06 16:22:50;;;;;;;4.45;2.10;;;;;;;5.97;60.55;99344.13;10520799;28;20043;-67
2024/01/06 16:27:52;;;;;;;7.43;2.47;;;;;;;5.80;60.98;99360.53;10497265;28;20040;-67
2024/01/06 16:32:54;;;;;;;4.38;2.45;;;;;;;5.86;60.92;99356.81;10502113;28;20148;-67
2024/01/06 16:37:57;;;;;;;6.80;3.10;;;;;;;5.99;60.58;99357.84;10519238;28;20044;-62
2024/01/06 16:43:00;;;;;;;19.48;11.95;;;;;;;5.99;60.70;99363.03;10519661;28;20051;-62
2024/01/06 16:48:02;;;;;;;9.90;3.60;;;;;;;5.94;60.85;99362.44;10516486;28;21053;-62
2024/01/06 16:53:04;;;;;;;5.63;2.90;;;;;;;6.00;60.99;99367.34;10498771;28;20040;-62
2024/01/06 16:58:06;;;;;;;5.60;2.97;;;;;;;6.03;60.99;99369.75;10516653;28;20044;-62
2024/01/06 17:03:08;;;;;;;7.28;3.13;;;;;;;6.04;60.97;99372.28;10519219;28;20120;-63
2024/01/06 17:08:11;;;;;;;4.57;2.15;;;;;;;5.95;61.34;99384.88;10514293;28;20476;-62
2024/01/06 17:13:13;;;;;;;4.38;1.70;;;;;;;5.91;61.10;99381.59;10510128;28;20050;-63
2024/01/06 17:18:15;;;;;;;4.55;2.13;;;;;;;5.95;61.26;99387.47;10506693;28;20040;-62
2024/01/06 17:23:17;;;;;;;3.08;1.63;;;;;;;5.96;61.11;99389.97;10513259;28;20071;-62
2024/01/06 17:28:19;;;;;;;5.70;3.00;;;;;;;5.73;61.34;99402.41;10510484;28;20044;-63
2024/01/06 17:33:21;;;;;;;4.85;2.88;;;;;;;5.63;61.78;99406.38;10519909;28;20174;-63
2024/01/06 17:38:23;;;;;;;4.10;2.20;;;;;;;5.64;61.89;99408.88;10516553;28;20636;-62
2024/01/06 17:43:25;;;;;;;3.85;1.90;;;;;;;5.67;61.67;99424.31;10516565;28;20178;-63
2024/01/06 17:48:28;;;;;;;2.85;1.80;;;;;;;5.57;62.03;99429.06;10513199;28;20048;-62
2024/01/06 17:53:31;;;;;;;5.03;1.90;;;;;;;5.61;61.85;99432.38;10516130;28;20441;-63
2024/01/06 17:58:33;;;;;;;4.95;1.80;;;;;;;5.65;61.46;99430.47;10515972;28;20075;-63
2024/01/06 18:03:35;;;;;;;3.28;1.65;;;;;;;5.63;61.33;99440.94;10517648;28;20048;-63
2024/01/06 18:08:37;;;;;;;2.88;1.60;;;;;;;5.64;61.33;99436.56;10500125;28;20072;-63
2024/01/06 18:13:38;;;;;;;4.22;2.20;;;;;;;5.55;61.36;99448.25;10530308;27;20044;-64
2024/01/06 18:18:40;;;;;;;4.55;2.05;;;;;;;5.32;61.77;99449.31;10517899;28;20052;-63
2024/01/06 18:23:43;;;;;;;4.32;2.13;;;;;;;5.37;61.52;99454.28;10515605;28;20051;-63
2024/01/06 18:28:45;;;;;;;3.63;1.80;;;;;;;5.51;61.46;99455.31;10514751;28;20496;-63
2024/01/06 18:33:47;;;;;;;5.28;2.35;;;;;;;5.61;61.03;99463.53;10514521;28;20198;-64
2024/01/06 18:38:50;;;;;;;3.92;1.92;;;;;;;5.64;61.08;99468.53;10515053;28;20539;-63
2024/01/06 18:43:52;;;;;;;3.78;1.85;;;;;;;5.51;61.10;99463.09;10498317;28;20108;-63
2024/01/06 18:48:55;;;;;;;4.30;2.33;;;;;;;5.29;61.27;99459.81;10516983;28;20071;-63
2024/01/06 18:53:57;;;;;;;3.92;2.03;;;;;;;5.29;61.57;99466.72;10515639;28;20093;-63
2024/01/06 18:58:59;;;;;;;4.15;1.98;;;;;;;5.40;61.23;99467.09;10514917;28;20127;-63
2024/01/06 19:04:01;;;;;;;4.68;2.50;;;;;;;5.31;61.38;99468.34;10514462;28;20062;-63
2024/01/06 19:09:03;;;;;;;5.28;2.42;;;;;;;5.22;62.00;99462.75;10512747;28;20044;-63
2024/01/06 19:14:06;;;;;;;6.25;3.00;;;;;;;5.19;61.74;99478.44;10512481;28;20159;-64
2024/01/06 19:19:08;;;;;;;6.40;3.00;;;;;;;5.26;61.52;99485.88;10514743;28;20044;-63
2024/01/06 19:24:10;;;;;;;5.25;2.83;;;;;;;5.16;61.61;99494.97;10512375;28;20558;-64
2024/01/06 19:29:18;;;;;;;5.45;2.58;;;;;;;5.08;61.83;99496.22;10511391;28;20054;-63
2024/01/06 19:34:20;;;;;;;5.90;3.10;;;;;;;5.22;61.69;99504.22;10513942;28;20054;-64
2024/01/06 19:39:22;;;;;;;5.75;2.92;;;;;;;4.99;62.14;99494.88;10513924;28;20052;-63
2024/01/06 19:44:24;;;;;;;4.90;2.72;;;;;;;5.19;62.00;99491.38;10497558;28;20301;-63
2024/01/06 19:49:26;;;;;;;5.03;2.70;;;;;;;5.14;61.92;99495.97;10514407;28;20047;-63
2024/01/06 19:54:31;;;;;;;6.22;3.20;;;;;;;5.05;61.92;99493.75;10514381;28;20044;-63
2024/01/06 19:59:34;;;;;;;4.80;2.60;;;;;;;5.06;62.03;99498.06;10529622;28;20059;-63
2024/01/06 20:04:36;;;;;;;6.10;2.88;;;;;;;5.08;61.94;99507.44;10511734;28;20067;-64
2024/01/06 20:09:38;;;;;;;6.50;3.30;;;;;;;4.99;62.12;99512.16;10513829;28;20068;-63
2024/01/06 20:14:40;;;;;;;7.07;3.08;;;;;;;4.91;62.41;99514.25;10495988;28;20048;-63
2024/01/06 20:19:42;;;;;;;7.80;3.80;;;;;;;5.05;62.09;99522.28;10525312;28;20047;-62
2024/01/06 20:24:44;;;;;;;5.05;2.90;;;;;;;5.04;62.00;99521.44;10509516;28;20520;-64
2024/01/06 20:29:48;;;;;;;6.38;3.05;;;;;;;5.00;62.23;99525.09;10511797;28;20139;-63
2024/01/06 20:34:50;;;;;;;7.38;3.17;;;;;;;5.00;62.19;99526.81;10508475;28;20135;-63
2024/01/06 20:39:54;;;;;;;6.50;3.00;;;;;;;5.14;61.99;99527.06;10511263;28;20055;-63
2024/01/06 20:44:56;;;;;;;6.65;3.20;;;;;;;5.01;62.07;99528.50;10510939;28;20396;-64
2024/01/06 20:49:59;;;;;;;6.05;2.78;;;;;;;4.84;62.53;99534.41;10508110;28;20040;-64
2024/01/06 20:55:03;;;;;;;5.20;2.78;;;;;;;4.86;62.28;99537.75;10509770;28;20051;-64
2024/01/06 21:00:06;;;;;;;4.78;1.92;;;;;;;4.76;62.35;99530.47;10503860;28;20799;-64
2024/01/06 21:05:08;;;;;;;6.05;2.13;;;;;;;4.62;62.80;99533.63;10513286;28;20059;-64
2024/01/06 21:10:10;;;;;;;5.90;2.85;;;;;;;4.83;62.47;99529.28;10513027;28;20050;-64
2024/01/06 21:15:13;;;;;;;4.10;2.28;;;;;;;4.65;62.67;99530.91;10512666;28;20055;-65
2024/01/06 21:20:15;;;;;;;3.55;2.10;;;;;;;4.66;62.65;99538.63;10520672;28;20159;-64
2024/01/06 21:25:19;;;;;;;5.75;2.28;;;;;;;4.62;62.64;99538.81;10519654;28;20075;-64
2024/01/06 21:30:21;;;;;;;5.90;2.20;;;;;;;4.65;62.65;99544.72;10515914;28;20036;-65
2024/01/06 21:35:23;;;;;;;5.18;2.60;;;;;;;4.66;62.50;99538.63;10518153;28;20130;-65
2024/01/06 21:40:26;;;;;;;5.03;2.20;;;;;;;4.55;62.67;99533.06;10519074;28;20143;-64
2024/01/06 21:45:28;;;;;;;3.08;1.83;;;;;;;4.49;62.91;99541.09;10519536;28;20056;-64
2024/01/06 21:50:32;;;;;;;5.13;2.20;;;;;;;4.59;62.79;99539.78;10518458;28;20058;-64
2024/01/06 21:55:34;;;;;;;3.65;2.13;;;;;;;4.63;62.34;99541.34;10519007;28;20044;-64
2024/01/06 22:00:36;;;;;;;4.72;2.10;;;;;;;4.61;62.53;99545.75;10518570;28;20043;-64
2024/01/06 22:05:38;;;;;;;5.78;2.30;;;;;;;4.78;62.38;99549.38;10519456;28;20510;-64
2024/01/06 22:10:40;;;;;;;3.92;2.08;;;;;;;4.87;62.25;99555.00;10534919;27;20101;-64
2024/01/06 22:15:42;;;;;;;4.68;2.42;;;;;;;4.87;62.26;99551.56;10518928;28;20139;-65
2024/01/06 22:20:44;;;;;;;4.32;2.30;;;;;;;4.87;62.07;99549.81;10501445;28;20054;-63
2024/01/06 22:25:46;;;;;;;3.92;2.20;;;;;;;4.88;62.13;99555.84;10518098;28;20199;-63
2024/01/06 22:30:48;;;;;;;4.25;2.33;;;;;;;4.92;62.20;99562.59;10519235;28;20152;-64
2024/01/06 22:35:50;;;;;;;4.22;2.22;;;;;;;4.97;61.77;99558.88;10518434;28;20040;-63
2024/01/06 22:40:52;;;;;;;3.60;2.20;;;;;;;4.85;61.91;99558.56;10517932;28;20407;-64
2024/01/06 22:45:54;;;;;;;4.95;2.30;;;;;;;4.92;61.77;99562.59;10517483;28;20048;-63
2024/01/06 22:50:56;;;;;;;4.13;2.13;;;;;;;4.92;62.02;99568.63;10518084;28;20044;-64
2024/01/06 22:55:58;;;;;;;2.58;1.63;;;;;;;4.99;61.72;99557.06;10516633;28;20522;-64
2024/01/06 23:01:01;;;;;;;3.00;1.80;;;;;;;4.97;61.83;99565.81;10517962;28;20048;-65
2024/01/06 23:06:06;;;;;;;3.80;2.05;;;;;;;5.03;61.50;99562.97;10516297;28;20420;-63
2024/01/06 23:11:13;;;;;;;6.00;1.95;;;;;;;4.94;61.49;99572.00;10516793;28;20055;-64
2024/01/06 23:16:15;;;;;;;5.05;2.42;;;;;;;4.88;61.45;99576.59;10517057;28;20044;-65
2024/01/06 23:21:18;;;;;;;4.15;2.03;;;;;;;4.69;61.49;99581.69;10499380;28;20144;-64
2024/01/06 23:26:20;;;;;;;3.90;2.05;;;;;;;4.79;61.71;99592.50;10516751;28;20238;-64
2024/01/06 23:31:22;;;;;;;3.00;1.65;;;;;;;4.86;61.26;99578.41;10496400;28;20044;-64
2024/01/06 23:36:24;;;;;;;4.15;1.98;;;;;;;4.90;61.12;99595.50;10498625;28;20493;-64
2024/01/06 23:41:26;;;;;;;2.75;1.65;;;;;;;4.97;60.78;99587.41;10516250;28;20064;-65
2024/01/06 23:46:29;;;;;;;2.92;1.70;;;;;;;5.01;60.84;99593.28;10516304;28;20666;-64